sensor_id;sensor_type;location;lat;lon;timestamp;pressure;altitude;pressure_sealevel;temperature;humidity
74881;BME280;63427;49.654;6.596;2022-12-11T00:01:53;99238.41;;;2.86;39.31
74881;BME280;63427;49.654;6.596;2022-12-11T00:04:18;99241.63;;;3.00;39.07
74881;BME280;63427;49.654;6.596;2022-12-11T00:06:47;99243.88;;;2.98;39.08
74881;BME280;63427;49.654;6.596;2022-12-11T00:09:10;99243.77;;;2.95;39.19
74881;BME280;63427;49.654;6.596;2022-12-11T00:11:35;99238.76;;;3.06;39.44
74881;BME280;63427;49.654;6.596;2022-12-11T00:14:00;99234.62;;;3.17;38.91
74881;BME280;63427;49.654;6.596;2022-12-11T00:18:51;99233.59;;;2.85;39.60
74881;BME280;63427;49.654;6.596;2022-12-11T00:21:16;99227.57;;;3.25;39.15
74881;BME280;63427;49.654;6.596;2022-12-11T00:23:42;99228.80;;;2.99;39.48
74881;BME280;63427;49.654;6.596;2022-12-11T00:26:10;99231.03;;;2.92;39.69
74881;BME280;63427;49.654;6.596;2022-12-11T00:28:33;99231.48;;;3.05;39.40
74881;BME280;63427;49.654;6.596;2022-12-11T00:30:58;99228.71;;;3.03;39.34
74881;BME280;63427;49.654;6.596;2022-12-11T00:33:25;99228.19;;;3.33;39.21
74881;BME280;63427;49.654;6.596;2022-12-11T00:35:49;99227.87;;;3.10;39.12
74881;BME280;63427;49.654;6.596;2022-12-11T00:38:16;99230.71;;;3.47;39.10
74881;BME280;63427;49.654;6.596;2022-12-11T00:40:40;99231.47;;;3.41;39.13
74881;BME280;63427;49.654;6.596;2022-12-11T00:43:07;99233.38;;;3.43;39.12
74881;BME280;63427;49.654;6.596;2022-12-11T00:45:30;99229.04;;;3.55;39.16
74881;BME280;63427;49.654;6.596;2022-12-11T00:47:56;99225.31;;;3.49;39.18
74881;BME280;63427;49.654;6.596;2022-12-11T00:50:21;99230.66;;;3.07;39.25
74881;BME280;63427;49.654;6.596;2022-12-11T00:52:47;99225.84;;;3.17;39.57
74881;BME280;63427;49.654;6.596;2022-12-11T00:55:13;99221.86;;;3.39;39.71
74881;BME280;63427;49.654;6.596;2022-12-11T00:57:39;99219.51;;;3.57;39.32
74881;BME280;63427;49.654;6.596;2022-12-11T01:00:05;99220.56;;;3.28;39.72
74881;BME280;63427;49.654;6.596;2022-12-11T01:02:29;99222.87;;;3.55;39.63
74881;BME280;63427;49.654;6.596;2022-12-11T01:04:55;99224.84;;;3.30;39.58
74881;BME280;63427;49.654;6.596;2022-12-11T01:07:20;99223.07;;;3.18;39.49
74881;BME280;63427;49.654;6.596;2022-12-11T01:09:45;99224.44;;;3.67;39.90
74881;BME280;63427;49.654;6.596;2022-12-11T01:12:11;99224.63;;;3.73;39.50
74881;BME280;63427;49.654;6.596;2022-12-11T01:14:36;99225.74;;;3.46;39.36
74881;BME280;63427;49.654;6.596;2022-12-11T01:17:01;99227.38;;;3.49;39.32
74881;BME280;63427;49.654;6.596;2022-12-11T01:19:26;99230.58;;;3.14;39.54
74881;BME280;63427;49.654;6.596;2022-12-11T01:21:52;99230.38;;;3.23;39.52
74881;BME280;63427;49.654;6.596;2022-12-11T01:24:18;99224.94;;;3.44;39.72
74881;BME280;63427;49.654;6.596;2022-12-11T01:26:43;99229.06;;;3.53;39.88
74881;BME280;63427;49.654;6.596;2022-12-11T01:29:09;99227.85;;;3.70;39.44
74881;BME280;63427;49.654;6.596;2022-12-11T01:31:34;99229.08;;;4.02;39.59
74881;BME280;63427;49.654;6.596;2022-12-11T01:34:00;99226.34;;;3.54;39.33
74881;BME280;63427;49.654;6.596;2022-12-11T01:36:26;99227.60;;;3.59;39.20
74881;BME280;63427;49.654;6.596;2022-12-11T01:38:51;99225.64;;;3.61;39.19
74881;BME280;63427;49.654;6.596;2022-12-11T01:41:17;99221.68;;;3.70;38.89
74881;BME280;63427;49.654;6.596;2022-12-11T01:43:55;99224.28;;;3.67;38.95
74881;BME280;63427;49.654;6.596;2022-12-11T01:46:07;99228.67;;;3.98;38.45
74881;BME280;63427;49.654;6.596;2022-12-11T01:48:33;99227.73;;;3.98;38.72
74881;BME280;63427;49.654;6.596;2022-12-11T01:51:01;99231.35;;;3.72;39.00
74881;BME280;63427;49.654;6.596;2022-12-11T01:53:27;99233.16;;;3.79;38.77
74881;BME280;63427;49.654;6.596;2022-12-11T01:55:51;99238.21;;;3.79;38.67
74881;BME280;63427;49.654;6.596;2022-12-11T01:58:17;99238.03;;;3.82;38.94
74881;BME280;63427;49.654;6.596;2022-12-11T02:00:41;99233.75;;;3.77;38.99
74881;BME280;63427;49.654;6.596;2022-12-11T02:03:07;99231.56;;;3.83;38.80
74881;BME280;63427;49.654;6.596;2022-12-11T02:05:32;99232.59;;;3.92;38.94
74881;BME280;63427;49.654;6.596;2022-12-11T02:07:59;99234.26;;;3.77;39.06
74881;BME280;63427;49.654;6.596;2022-12-11T02:10:25;99234.64;;;3.89;38.96
74881;BME280;63427;49.654;6.596;2022-12-11T02:12:55;99234.14;;;3.76;39.25
74881;BME280;63427;49.654;6.596;2022-12-11T02:15:21;99226.73;;;3.68;39.76
74881;BME280;63427;49.654;6.596;2022-12-11T02:17:43;99212.95;;;3.86;39.23
74881;BME280;63427;49.654;6.596;2022-12-11T02:20:09;99209.48;;;4.12;38.90
74881;BME280;63427;49.654;6.596;2022-12-11T02:22:46;99209.48;;;3.79;39.13
74881;BME280;63427;49.654;6.596;2022-12-11T02:25:04;99206.13;;;3.86;39.15
74881;BME280;63427;49.654;6.596;2022-12-11T02:27:28;99208.60;;;3.88;39.01
74881;BME280;63427;49.654;6.596;2022-12-11T02:29:50;99218.85;;;3.66;39.23
74881;BME280;63427;49.654;6.596;2022-12-11T02:32:17;99219.40;;;3.67;38.95
74881;BME280;63427;49.654;6.596;2022-12-11T02:34:41;99220.75;;;3.49;39.23
74881;BME280;63427;49.654;6.596;2022-12-11T02:37:10;99210.51;;;3.67;38.96
74881;BME280;63427;49.654;6.596;2022-12-11T02:39:31;99200.99;;;3.89;38.81
74881;BME280;63427;49.654;6.596;2022-12-11T02:41:55;99205.80;;;3.67;39.36
74881;BME280;63427;49.654;6.596;2022-12-11T02:44:23;99205.64;;;3.69;38.98
74881;BME280;63427;49.654;6.596;2022-12-11T02:46:45;99207.93;;;3.11;39.87
74881;BME280;63427;49.654;6.596;2022-12-11T02:49:12;99206.92;;;2.89;40.41
74881;BME280;63427;49.654;6.596;2022-12-11T02:51:39;99200.11;;;3.23;40.43
74881;BME280;63427;49.654;6.596;2022-12-11T02:54:07;99199.39;;;3.28;40.35
74881;BME280;63427;49.654;6.596;2022-12-11T02:56:31;99206.37;;;3.28;40.29
74881;BME280;63427;49.654;6.596;2022-12-11T02:58:56;99210.69;;;2.91;40.48
74881;BME280;63427;49.654;6.596;2022-12-11T03:01:18;99207.33;;;3.42;40.44
74881;BME280;63427;49.654;6.596;2022-12-11T03:03:44;99207.09;;;3.21;40.50
74881;BME280;63427;49.654;6.596;2022-12-11T03:06:12;99209.00;;;3.05;40.24
74881;BME280;63427;49.654;6.596;2022-12-11T03:08:35;99207.36;;;3.16;40.61
74881;BME280;63427;49.654;6.596;2022-12-11T03:11:01;99209.99;;;3.33;40.70
74881;BME280;63427;49.654;6.596;2022-12-11T03:13:26;99203.30;;;3.17;40.46
74881;BME280;63427;49.654;6.596;2022-12-11T03:16:00;99203.16;;;3.34;40.53
74881;BME280;63427;49.654;6.596;2022-12-11T03:18:22;99203.57;;;2.97;40.51
74881;BME280;63427;49.654;6.596;2022-12-11T03:20:45;99205.83;;;3.21;40.19
74881;BME280;63427;49.654;6.596;2022-12-11T03:23:16;99203.58;;;3.04;40.19
74881;BME280;63427;49.654;6.596;2022-12-11T03:25:42;99199.99;;;3.05;40.08
74881;BME280;63427;49.654;6.596;2022-12-11T03:28:04;99201.41;;;3.26;40.02
74881;BME280;63427;49.654;6.596;2022-12-11T03:30:28;99199.66;;;3.14;39.80
74881;BME280;63427;49.654;6.596;2022-12-11T03:32:53;99197.91;;;3.32;39.85
74881;BME280;63427;49.654;6.596;2022-12-11T03:35:19;99197.47;;;3.22;40.09
74881;BME280;63427;49.654;6.596;2022-12-11T03:37:42;99200.81;;;3.34;39.83
74881;BME280;63427;49.654;6.596;2022-12-11T03:40:11;99208.60;;;3.30;39.70
74881;BME280;63427;49.654;6.596;2022-12-11T03:42:32;99215.87;;;3.39;39.45
74881;BME280;63427;49.654;6.596;2022-12-11T03:44:58;99214.60;;;3.70;39.66
74881;BME280;63427;49.654;6.596;2022-12-11T03:47:23;99216.48;;;3.37;39.56
74881;BME280;63427;49.654;6.596;2022-12-11T03:49:48;99215.38;;;2.90;39.98
74881;BME280;63427;49.654;6.596;2022-12-11T03:52:13;99213.38;;;3.01;40.21
74881;BME280;63427;49.654;6.596;2022-12-11T03:54:39;99214.30;;;2.94;40.47
74881;BME280;63427;49.654;6.596;2022-12-11T03:57:04;99210.12;;;2.70;40.68
74881;BME280;63427;49.654;6.596;2022-12-11T03:59:28;99203.49;;;2.79;40.49
74881;BME280;63427;49.654;6.596;2022-12-11T04:01:54;99196.09;;;3.47;40.08
74881;BME280;63427;49.654;6.596;2022-12-11T04:04:19;99195.95;;;3.24;40.29
74881;BME280;63427;49.654;6.596;2022-12-11T04:06:45;99191.68;;;3.35;39.96
74881;BME280;63427;49.654;6.596;2022-12-11T04:09:11;99192.54;;;2.99;39.77
74881;BME280;63427;49.654;6.596;2022-12-11T04:11:36;99189.66;;;3.33;40.23
74881;BME280;63427;49.654;6.596;2022-12-11T04:14:02;99193.97;;;3.12;40.09
74881;BME280;63427;49.654;6.596;2022-12-11T04:16:27;99192.11;;;3.44;39.91
74881;BME280;63427;49.654;6.596;2022-12-11T04:18:52;99196.50;;;2.66;41.37
74881;BME280;63427;49.654;6.596;2022-12-11T04:21:18;99197.66;;;2.53;41.11
74881;BME280;63427;49.654;6.596;2022-12-11T04:23:43;99201.67;;;2.74;40.94
74881;BME280;63427;49.654;6.596;2022-12-11T04:26:10;99200.40;;;2.95;40.41
74881;BME280;63427;49.654;6.596;2022-12-11T04:28:34;99201.16;;;2.81;40.69
74881;BME280;63427;49.654;6.596;2022-12-11T04:30:59;99202.26;;;2.74;41.36
74881;BME280;63427;49.654;6.596;2022-12-11T04:33:24;99197.51;;;2.99;40.69
74881;BME280;63427;49.654;6.596;2022-12-11T04:35:50;99188.90;;;2.90;40.98
74881;BME280;63427;49.654;6.596;2022-12-11T04:38:16;99186.78;;;3.18;40.65
74881;BME280;63427;49.654;6.596;2022-12-11T04:40:40;99182.52;;;3.00;40.22
74881;BME280;63427;49.654;6.596;2022-12-11T04:43:06;99181.99;;;2.86;40.01
74881;BME280;63427;49.654;6.596;2022-12-11T04:45:31;99183.89;;;3.18;39.93
74881;BME280;63427;49.654;6.596;2022-12-11T04:47:56;99180.00;;;3.39;39.95
74881;BME280;63427;49.654;6.596;2022-12-11T04:50:22;99181.43;;;3.12;39.71
74881;BME280;63427;49.654;6.596;2022-12-11T04:52:47;99185.34;;;3.41;39.64
74881;BME280;63427;49.654;6.596;2022-12-11T04:55:12;99193.89;;;3.08;39.99
74881;BME280;63427;49.654;6.596;2022-12-11T04:57:39;99192.36;;;3.27;39.84
74881;BME280;63427;49.654;6.596;2022-12-11T05:00:07;99191.20;;;3.10;40.02
74881;BME280;63427;49.654;6.596;2022-12-11T05:02:32;99190.98;;;2.62;41.03
74881;BME280;63427;49.654;6.596;2022-12-11T05:04:55;99191.59;;;2.77;40.89
74881;BME280;63427;49.654;6.596;2022-12-11T05:07:21;99191.35;;;3.01;40.39
74881;BME280;63427;49.654;6.596;2022-12-11T05:09:46;99193.40;;;2.90;40.63
74881;BME280;63427;49.654;6.596;2022-12-11T05:12:11;99191.59;;;2.84;40.27
74881;BME280;63427;49.654;6.596;2022-12-11T05:14:37;99187.68;;;3.18;40.36
74881;BME280;63427;49.654;6.596;2022-12-11T05:17:02;99179.93;;;3.42;39.95
74881;BME280;63427;49.654;6.596;2022-12-11T05:19:28;99183.41;;;3.32;39.39
74881;BME280;63427;49.654;6.596;2022-12-11T05:21:53;99182.28;;;3.13;39.65
74881;BME280;63427;49.654;6.596;2022-12-11T05:24:18;99179.13;;;3.19;39.52
74881;BME280;63427;49.654;6.596;2022-12-11T05:26:45;99176.73;;;3.30;39.29
74881;BME280;63427;49.654;6.596;2022-12-11T05:29:09;99178.45;;;3.02;39.93
74881;BME280;63427;49.654;6.596;2022-12-11T05:31:35;99175.44;;;2.80;40.27
74881;BME280;63427;49.654;6.596;2022-12-11T05:34:00;99171.04;;;3.07;40.05
74881;BME280;63427;49.654;6.596;2022-12-11T05:36:30;99167.45;;;2.82;40.46
74881;BME280;63427;49.654;6.596;2022-12-11T05:38:52;99165.52;;;2.87;40.38
74881;BME280;63427;49.654;6.596;2022-12-11T05:41:18;99171.03;;;2.82;40.18
74881;BME280;63427;49.654;6.596;2022-12-11T05:43:42;99168.07;;;2.95;40.18
74881;BME280;63427;49.654;6.596;2022-12-11T05:46:10;99165.21;;;2.59;40.23
74881;BME280;63427;49.654;6.596;2022-12-11T05:48:33;99166.45;;;2.89;40.19
74881;BME280;63427;49.654;6.596;2022-12-11T05:50:59;99173.04;;;2.70;40.49
74881;BME280;63427;49.654;6.596;2022-12-11T05:53:24;99173.73;;;2.44;40.96
74881;BME280;63427;49.654;6.596;2022-12-11T05:55:50;99176.50;;;2.38;41.38
74881;BME280;63427;49.654;6.596;2022-12-11T05:58:15;99184.30;;;2.59;41.05
74881;BME280;63427;49.654;6.596;2022-12-11T06:00:41;99187.09;;;2.49;40.82
74881;BME280;63427;49.654;6.596;2022-12-11T06:03:06;99186.28;;;2.26;40.86
74881;BME280;63427;49.654;6.596;2022-12-11T06:05:31;99189.56;;;2.26;41.69
74881;BME280;63427;49.654;6.596;2022-12-11T06:07:57;99186.77;;;2.29;41.58
74881;BME280;63427;49.654;6.596;2022-12-11T06:10:23;99188.99;;;2.01;41.96
74881;BME280;63427;49.654;6.596;2022-12-11T06:12:48;99185.76;;;1.95;41.73
74881;BME280;63427;49.654;6.596;2022-12-11T06:15:13;99182.50;;;2.23;41.55
74881;BME280;63427;49.654;6.596;2022-12-11T06:17:39;99180.92;;;1.94;42.27
74881;BME280;63427;49.654;6.596;2022-12-11T06:20:05;99172.40;;;2.19;41.64
74881;BME280;63427;49.654;6.596;2022-12-11T06:22:29;99171.27;;;2.33;41.36
74881;BME280;63427;49.654;6.596;2022-12-11T06:24:54;99167.49;;;2.48;40.95
74881;BME280;63427;49.654;6.596;2022-12-11T06:27:20;99169.94;;;2.72;40.36
74881;BME280;63427;49.654;6.596;2022-12-11T06:29:45;99173.43;;;3.06;39.89
74881;BME280;63427;49.654;6.596;2022-12-11T06:32:11;99170.16;;;2.80;40.29
74881;BME280;63427;49.654;6.596;2022-12-11T06:34:36;99170.99;;;2.62;40.11
74881;BME280;63427;49.654;6.596;2022-12-11T06:37:02;99168.85;;;2.75;39.94
74881;BME280;63427;49.654;6.596;2022-12-11T06:39:28;99165.79;;;3.18;39.56
74881;BME280;63427;49.654;6.596;2022-12-11T06:41:53;99165.26;;;3.23;39.80
74881;BME280;63427;49.654;6.596;2022-12-11T06:44:19;99162.37;;;3.10;39.49
74881;BME280;63427;49.654;6.596;2022-12-11T06:46:45;99154.41;;;2.93;39.55
74881;BME280;63427;49.654;6.596;2022-12-11T06:49:10;99151.89;;;3.48;39.39
74881;BME280;63427;49.654;6.596;2022-12-11T06:51:35;99154.17;;;3.35;39.09
74881;BME280;63427;49.654;6.596;2022-12-11T06:54:00;99157.64;;;3.05;39.38
74881;BME280;63427;49.654;6.596;2022-12-11T06:56:26;99162.37;;;2.99;39.73
74881;BME280;63427;49.654;6.596;2022-12-11T06:58:51;99164.01;;;3.09;39.59
74881;BME280;63427;49.654;6.596;2022-12-11T07:01:18;99166.83;;;2.97;39.63
74881;BME280;63427;49.654;6.596;2022-12-11T07:03:41;99167.71;;;3.12;39.54
74881;BME280;63427;49.654;6.596;2022-12-11T07:06:07;99168.59;;;2.93;39.94
74881;BME280;63427;49.654;6.596;2022-12-11T07:08:32;99164.26;;;3.10;39.44
74881;BME280;63427;49.654;6.596;2022-12-11T07:11:02;99165.31;;;3.06;39.32
74881;BME280;63427;49.654;6.596;2022-12-11T07:13:22;99167.16;;;3.24;39.20
74881;BME280;63427;49.654;6.596;2022-12-11T07:15:48;99169.85;;;3.12;38.66
74881;BME280;63427;49.654;6.596;2022-12-11T07:18:13;99171.43;;;3.60;38.78
74881;BME280;63427;49.654;6.596;2022-12-11T07:20:38;99168.79;;;3.24;38.84
74881;BME280;63427;49.654;6.596;2022-12-11T07:23:04;99164.30;;;3.05;38.60
74881;BME280;63427;49.654;6.596;2022-12-11T07:25:29;99163.56;;;2.95;38.70
74881;BME280;63427;49.654;6.596;2022-12-11T07:27:55;99164.71;;;2.87;38.74
74881;BME280;63427;49.654;6.596;2022-12-11T07:30:20;99167.57;;;3.20;38.58
74881;BME280;63427;49.654;6.596;2022-12-11T07:32:45;99165.64;;;3.34;38.52
74881;BME280;63427;49.654;6.596;2022-12-11T07:35:11;99166.99;;;3.43;38.46
74881;BME280;63427;49.654;6.596;2022-12-11T07:37:39;99169.25;;;3.17;38.59
74881;BME280;63427;49.654;6.596;2022-12-11T07:40:02;99169.95;;;3.20;38.60
74881;BME280;63427;49.654;6.596;2022-12-11T07:42:27;99170.70;;;3.21;38.52
74881;BME280;63427;49.654;6.596;2022-12-11T07:44:53;99174.24;;;3.67;38.42
74881;BME280;63427;49.654;6.596;2022-12-11T07:47:18;99172.31;;;3.29;38.58
74881;BME280;63427;49.654;6.596;2022-12-11T07:49:43;99172.14;;;3.12;38.71
74881;BME280;63427;49.654;6.596;2022-12-11T07:52:09;99170.63;;;3.32;38.56
74881;BME280;63427;49.654;6.596;2022-12-11T07:54:34;99175.00;;;3.13;38.73
74881;BME280;63427;49.654;6.596;2022-12-11T07:56:59;99173.82;;;3.18;38.54
74881;BME280;63427;49.654;6.596;2022-12-11T07:59:25;99175.18;;;3.45;38.92
74881;BME280;63427;49.654;6.596;2022-12-11T08:01:51;99178.55;;;3.38;38.56
74881;BME280;63427;49.654;6.596;2022-12-11T08:04:16;99180.61;;;3.41;38.77
74881;BME280;63427;49.654;6.596;2022-12-11T08:06:42;99181.20;;;3.51;38.62
74881;BME280;63427;49.654;6.596;2022-12-11T08:09:10;99181.04;;;3.06;38.61
74881;BME280;63427;49.654;6.596;2022-12-11T08:11:34;99181.11;;;3.57;38.52
74881;BME280;63427;49.654;6.596;2022-12-11T08:13:58;99176.03;;;3.45;39.03
74881;BME280;63427;49.654;6.596;2022-12-11T08:16:25;99174.30;;;3.47;38.98
74881;BME280;63427;49.654;6.596;2022-12-11T08:18:50;99178.26;;;3.29;38.86
74881;BME280;63427;49.654;6.596;2022-12-11T08:21:17;99179.93;;;3.25;38.57
74881;BME280;63427;49.654;6.596;2022-12-11T08:23:40;99180.54;;;3.30;38.58
74881;BME280;63427;49.654;6.596;2022-12-11T08:26:07;99181.43;;;3.56;38.31
74881;BME280;63427;49.654;6.596;2022-12-11T08:28:31;99182.68;;;3.36;38.48
74881;BME280;63427;49.654;6.596;2022-12-11T08:30:56;99180.50;;;3.65;38.33
74881;BME280;63427;49.654;6.596;2022-12-11T08:33:21;99181.83;;;3.50;38.01
74881;BME280;63427;49.654;6.596;2022-12-11T08:35:46;99187.76;;;3.39;38.19
74881;BME280;63427;49.654;6.596;2022-12-11T08:38:12;99186.93;;;3.15;38.09
74881;BME280;63427;49.654;6.596;2022-12-11T08:40:38;99185.73;;;3.55;38.69
74881;BME280;63427;49.654;6.596;2022-12-11T08:43:03;99187.36;;;2.96;38.34
74881;BME280;63427;49.654;6.596;2022-12-11T08:45:29;99184.45;;;2.65;39.29
74881;BME280;63427;49.654;6.596;2022-12-11T08:47:54;99182.98;;;3.01;39.35
74881;BME280;63427;49.654;6.596;2022-12-11T08:50:20;99183.77;;;2.85;38.97
74881;BME280;63427;49.654;6.596;2022-12-11T08:52:45;99179.02;;;3.23;38.58
74881;BME280;63427;49.654;6.596;2022-12-11T08:55:10;99180.15;;;3.28;38.37
74881;BME280;63427;49.654;6.596;2022-12-11T08:57:35;99183.54;;;2.90;38.51
74881;BME280;63427;49.654;6.596;2022-12-11T09:00:01;99180.39;;;3.24;38.46
74881;BME280;63427;49.654;6.596;2022-12-11T09:02:26;99175.69;;;3.17;38.36
74881;BME280;63427;49.654;6.596;2022-12-11T09:04:52;99173.65;;;3.58;38.14
74881;BME280;63427;49.654;6.596;2022-12-11T09:07:18;99165.94;;;3.34;38.11
74881;BME280;63427;49.654;6.596;2022-12-11T09:09:43;99171.31;;;3.49;38.57
74881;BME280;63427;49.654;6.596;2022-12-11T09:12:08;99173.18;;;2.78;38.57
74881;BME280;63427;49.654;6.596;2022-12-11T09:14:34;99171.90;;;3.28;38.39
74881;BME280;63427;49.654;6.596;2022-12-11T09:17:00;99170.56;;;3.07;39.14
74881;BME280;63427;49.654;6.596;2022-12-11T09:19:25;99168.23;;;3.53;39.08
74881;BME280;63427;49.654;6.596;2022-12-11T09:21:51;99162.66;;;3.44;38.37
74881;BME280;63427;49.654;6.596;2022-12-11T09:24:16;99161.13;;;3.42;37.99
74881;BME280;63427;49.654;6.596;2022-12-11T09:26:41;99161.22;;;3.55;37.89
74881;BME280;63427;49.654;6.596;2022-12-11T09:29:08;99162.74;;;3.40;38.05
74881;BME280;63427;49.654;6.596;2022-12-11T09:31:34;99162.04;;;3.68;37.47
74881;BME280;63427;49.654;6.596;2022-12-11T09:33:59;99162.36;;;3.78;37.67
74881;BME280;63427;49.654;6.596;2022-12-11T09:36:24;99167.95;;;3.57;38.11
74881;BME280;63427;49.654;6.596;2022-12-11T09:38:49;99166.83;;;3.45;38.52
74881;BME280;63427;49.654;6.596;2022-12-11T09:41:34;99168.59;;;3.43;38.46
74881;BME280;63427;49.654;6.596;2022-12-11T09:43:44;99164.50;;;3.03;38.36
74881;BME280;63427;49.654;6.596;2022-12-11T09:46:09;99157.49;;;3.59;37.87
74881;BME280;63427;49.654;6.596;2022-12-11T09:48:32;99152.43;;;3.20;38.69
74881;BME280;63427;49.654;6.596;2022-12-11T09:50:56;99156.46;;;2.70;39.15
74881;BME280;63427;49.654;6.596;2022-12-11T09:53:25;99156.49;;;3.27;38.64
74881;BME280;63427;49.654;6.596;2022-12-11T09:55:53;99153.91;;;3.26;38.50
74881;BME280;63427;49.654;6.596;2022-12-11T09:58:19;99151.41;;;3.43;37.93
74881;BME280;63427;49.654;6.596;2022-12-11T10:00:40;99149.60;;;3.63;37.86
74881;BME280;63427;49.654;6.596;2022-12-11T10:05:35;99143.78;;;3.75;37.54
74881;BME280;63427;49.654;6.596;2022-12-11T10:07:59;99140.38;;;3.34;38.22
74881;BME280;63427;49.654;6.596;2022-12-11T10:10:27;99142.31;;;2.92;38.97
74881;BME280;63427;49.654;6.596;2022-12-11T10:12:52;99138.20;;;3.14;39.17
74881;BME280;63427;49.654;6.596;2022-12-11T10:15:19;99138.40;;;3.44;38.61
74881;BME280;63427;49.654;6.596;2022-12-11T10:17:37;99137.92;;;3.52;38.17
74881;BME280;63427;49.654;6.596;2022-12-11T10:20:13;99135.01;;;3.71;37.86
74881;BME280;63427;49.654;6.596;2022-12-11T10:22:28;99131.53;;;4.03;37.66
74881;BME280;63427;49.654;6.596;2022-12-11T10:24:55;99127.24;;;3.94;37.59
74881;BME280;63427;49.654;6.596;2022-12-11T10:27:19;99126.36;;;3.41;38.27
74881;BME280;63427;49.654;6.596;2022-12-11T10:29:42;99125.59;;;3.40;38.44
74881;BME280;63427;49.654;6.596;2022-12-11T10:32:14;99121.34;;;3.24;38.31
74881;BME280;63427;49.654;6.596;2022-12-11T10:34:34;99115.46;;;3.43;38.82
74881;BME280;63427;49.654;6.596;2022-12-11T10:36:58;99103.90;;;3.91;38.45
74881;BME280;63427;49.654;6.596;2022-12-11T10:39:23;99100.23;;;4.35;37.89
74881;BME280;63427;49.654;6.596;2022-12-11T10:41:50;99104.14;;;4.37;37.59
74881;BME280;63427;49.654;6.596;2022-12-11T10:44:16;99096.55;;;4.62;37.40
74881;BME280;63427;49.654;6.596;2022-12-11T10:46:39;99093.20;;;4.46;37.08
74881;BME280;63427;49.654;6.596;2022-12-11T10:49:04;99087.94;;;4.34;36.60
74881;BME280;63427;49.654;6.596;2022-12-11T10:51:34;99084.91;;;4.73;36.59
74881;BME280;63427;49.654;6.596;2022-12-11T10:54:04;99079.38;;;4.45;36.57
74881;BME280;63427;49.654;6.596;2022-12-11T10:56:27;99079.22;;;4.48;36.44
74881;BME280;63427;49.654;6.596;2022-12-11T10:58:48;99079.71;;;4.43;36.28
74881;BME280;63427;49.654;6.596;2022-12-11T11:01:14;99077.23;;;4.29;36.49
74881;BME280;63427;49.654;6.596;2022-12-11T11:03:50;99074.59;;;4.13;37.04
74881;BME280;63427;49.654;6.596;2022-12-11T11:06:04;99068.26;;;4.73;37.48
74881;BME280;63427;49.654;6.596;2022-12-11T11:10:54;99062.82;;;4.38;36.53
74881;BME280;63427;49.654;6.596;2022-12-11T11:13:20;99067.99;;;4.83;36.47
74881;BME280;63427;49.654;6.596;2022-12-11T11:15:44;99066.29;;;4.66;36.55
74881;BME280;63427;49.654;6.596;2022-12-11T11:18:11;99064.31;;;4.92;36.18
74881;BME280;63427;49.654;6.596;2022-12-11T11:20:34;99063.46;;;4.65;36.54
74881;BME280;63427;49.654;6.596;2022-12-11T11:23:02;99057.94;;;4.96;36.18
74881;BME280;63427;49.654;6.596;2022-12-11T11:25:27;99057.69;;;5.01;35.81
74881;BME280;63427;49.654;6.596;2022-12-11T11:27:52;99053.87;;;4.82;36.19
74881;BME280;63427;49.654;6.596;2022-12-11T11:30:19;99049.43;;;5.51;35.42
74881;BME280;63427;49.654;6.596;2022-12-11T11:32:42;99054.54;;;5.06;35.75
74881;BME280;63427;49.654;6.596;2022-12-11T11:35:17;99050.83;;;5.28;35.79
74881;BME280;63427;49.654;6.596;2022-12-11T11:37:33;99048.02;;;5.32;35.55
74881;BME280;63427;49.654;6.596;2022-12-11T11:40:04;99047.41;;;5.31;35.45
74881;BME280;63427;49.654;6.596;2022-12-11T11:42:31;99046.37;;;5.45;35.39
74881;BME280;63427;49.654;6.596;2022-12-11T11:44:57;99040.84;;;5.49;35.18
74881;BME280;63427;49.654;6.596;2022-12-11T11:47:19;99035.70;;;4.81;35.88
74881;BME280;63427;49.654;6.596;2022-12-11T11:49:51;99030.80;;;5.51;35.87
74881;BME280;63427;49.654;6.596;2022-12-11T11:52:11;99031.18;;;4.91;35.65
74881;BME280;63427;49.654;6.596;2022-12-11T11:54:34;99030.02;;;5.21;35.95
74881;BME280;63427;49.654;6.596;2022-12-11T11:56:58;99032.98;;;4.87;35.85
74881;BME280;63427;49.654;6.596;2022-12-11T11:59:26;99033.46;;;5.54;36.01
74881;BME280;63427;49.654;6.596;2022-12-11T12:01:47;99031.69;;;5.74;35.79
74881;BME280;63427;49.654;6.596;2022-12-11T12:04:13;99025.63;;;5.58;34.95
74881;BME280;63427;49.654;6.596;2022-12-11T12:06:58;99026.08;;;5.48;35.00
74881;BME280;63427;49.654;6.596;2022-12-11T12:09:15;99024.09;;;5.41;35.04
74881;BME280;63427;49.654;6.596;2022-12-11T12:11:35;99022.61;;;5.63;35.48
74881;BME280;63427;49.654;6.596;2022-12-11T12:14:03;99023.84;;;5.80;34.52
74881;BME280;63427;49.654;6.596;2022-12-11T12:16:25;99023.56;;;5.90;34.37
74881;BME280;63427;49.654;6.596;2022-12-11T12:18:54;99018.35;;;6.04;34.80
74881;BME280;63427;49.654;6.596;2022-12-11T12:21:18;99018.49;;;6.09;34.61
74881;BME280;63427;49.654;6.596;2022-12-11T12:23:46;99017.67;;;6.05;34.66
74881;BME280;63427;49.654;6.596;2022-12-11T12:26:07;99017.47;;;6.26;33.58
74881;BME280;63427;49.654;6.596;2022-12-11T12:28:35;99016.34;;;6.10;34.45
74881;BME280;63427;49.654;6.596;2022-12-11T12:31:03;99015.13;;;6.05;35.04
74881;BME280;63427;49.654;6.596;2022-12-11T12:33:30;99011.08;;;6.43;34.77
74881;BME280;63427;49.654;6.596;2022-12-11T12:35:51;99012.53;;;6.25;34.74
74881;BME280;63427;49.654;6.596;2022-12-11T12:38:13;99011.12;;;6.35;34.26
74881;BME280;63427;49.654;6.596;2022-12-11T12:40:41;99006.34;;;6.56;33.80
74881;BME280;63427;49.654;6.596;2022-12-11T12:43:11;99009.17;;;6.48;33.68
74881;BME280;63427;49.654;6.596;2022-12-11T12:45:30;99011.97;;;6.40;33.43
74881;BME280;63427;49.654;6.596;2022-12-11T12:47:52;99008.00;;;6.45;33.84
74881;BME280;63427;49.654;6.596;2022-12-11T12:50:19;99007.70;;;6.17;34.10
74881;BME280;63427;49.654;6.596;2022-12-11T12:52:43;99006.91;;;6.27;33.50
74881;BME280;63427;49.654;6.596;2022-12-11T12:55:19;99003.34;;;6.11;33.23
74881;BME280;63427;49.654;6.596;2022-12-11T12:57:34;99001.13;;;6.43;33.47
74881;BME280;63427;49.654;6.596;2022-12-11T12:59:59;99003.06;;;6.48;33.79
74881;BME280;63427;49.654;6.596;2022-12-11T13:02:25;99008.43;;;6.23;34.05
74881;BME280;63427;49.654;6.596;2022-12-11T13:04:57;99012.54;;;6.05;33.43
74881;BME280;63427;49.654;6.596;2022-12-11T13:07:19;99013.17;;;6.58;33.54